Time;durP1;ratioP1;P1;durP2;ratioP2;P2;SDS_P1;SDS_P2;PMS_P1;PMS_P2;Temp;Humidity;BMP_temperature;BMP_pressure;BME280_temperature;BME280_humidity;BME280_pressure;Samples;Min_cycle;Max_cycle;Signal;HPM_P1;HPM_P2
2022/09/22 00:00:25;;;;;;;783.77;733.77;;;5.70;99.90;;;;;;4999056;28;20461;-82
2022/09/22 00:02:55;;;;;;;838.23;782.90;;;5.80;99.90;;;;;;4998575;28;20482;-81
2022/09/22 00:05:23;;;;;;;864.30;804.57;;;5.70;99.90;;;;;;4998563;28;20457;-82
2022/09/22 00:07:52;;;;;;;823.57;769.67;;;5.70;99.90;;;;;;4998505;28;21013;-82
2022/09/22 00:10:20;;;;;;;829.10;774.50;;;5.90;99.90;;;;;;4998871;28;20462;-82
2022/09/22 00:12:47;;;;;;;808.73;756.73;;;6.00;99.90;;;;;;4998060;28;20564;-81
2022/09/22 00:15:15;;;;;;;836.97;784.03;;;6.10;99.90;;;;;;4997786;28;20454;-81
2022/09/22 00:17:41;;;;;;;813.57;761.93;;;5.90;99.90;;;;;;4998719;28;20548;-81
2022/09/22 00:20:09;;;;;;;800.23;750.63;;;5.80;99.90;;;;;;4998412;28;20451;-83
2022/09/22 00:22:36;;;;;;;799.07;748.47;;;5.80;99.90;;;;;;4998320;28;20532;-82
2022/09/22 00:25:05;;;;;;;811.53;759.70;;;5.70;99.90;;;;;;4997893;28;20454;-82
2022/09/22 00:27:31;;;;;;;785.60;736.40;;;5.80;99.90;;;;;;4997991;28;20484;-81
2022/09/22 00:29:58;;;;;;;770.17;721.97;;;5.70;99.90;;;;;;4997904;28;20477;-81
2022/09/22 00:32:25;;;;;;;802.80;751.50;;;5.70;99.90;;;;;;4998936;28;20454;-82
2022/09/22 00:34:52;;;;;;;868.37;807.70;;;5.50;99.90;;;;;;4997528;28;20450;-81
2022/09/22 00:37:19;;;;;;;893.40;824.80;;;5.70;99.90;;;;;;4997953;28;20450;-82
2022/09/22 00:39:45;;;;;;;898.20;827.80;;;6.00;99.90;;;;;;4997717;28;20454;-82
2022/09/22 00:42:13;;;;;;;903.27;832.10;;;5.80;99.90;;;;;;4997936;28;20485;-82
2022/09/22 00:44:41;;;;;;;902.93;834.10;;;5.80;99.90;;;;;;4997189;28;20481;-81
2022/09/22 00:47:26;;;;;;;912.20;843.57;;;5.90;99.90;;;;;;4997982;28;20466;-81
2022/09/22 00:49:56;;;;;;;902.80;834.13;;;5.80;99.90;;;;;;4998138;28;20460;-81
2022/09/22 00:52:27;;;;;;;904.00;839.93;;;5.80;99.90;;;;;;4998314;28;20548;-81
2022/09/22 00:54:56;;;;;;;906.57;844.50;;;5.80;99.90;;;;;;4997750;28;20461;-81
2022/09/22 00:57:28;;;;;;;886.17;824.53;;;5.80;99.90;;;;;;4998071;28;20453;-82
2022/09/22 00:59:55;;;;;;;888.57;828.47;;;5.80;99.90;;;;;;4998249;28;20461;-81
2022/09/22 01:02:22;;;;;;;891.73;830.83;;;5.80;99.90;;;;;;4997117;28;20486;-81
2022/09/22 01:04:51;;;;;;;879.83;822.33;;;5.80;99.90;;;;;;4997671;28;20466;-82
2022/09/22 01:07:19;;;;;;;856.07;800.27;;;5.80;99.90;;;;;;4997777;28;20952;-82
2022/09/22 01:09:46;;;;;;;843.57;788.77;;;5.70;99.90;;;;;;4996888;28;20461;-82
2022/09/22 01:12:13;;;;;;;846.00;791.87;;;5.60;99.90;;;;;;4997958;28;20454;-82
2022/09/22 01:15:03;;;;;;;844.90;791.00;;;5.60;99.90;;;;;;4997465;28;20474;-81
2022/09/22 01:17:38;;;;;;;857.27;802.43;;;5.50;99.90;;;;;;4997408;28;20473;-81
2022/09/22 01:20:34;;;;;;;875.40;817.53;;;5.50;99.90;;;;;;4997059;28;20460;-82
2022/09/22 01:23:20;;;;;;;859.90;803.23;;;5.60;99.90;;;;;;4997280;28;20508;-81
2022/09/22 01:26:05;;;;;;;862.17;805.33;;;5.50;99.90;;;;;;4997448;28;20466;-82
2022/09/22 01:29:11;;;;;;;865.07;808.17;;;5.50;99.90;;;;;;4997431;28;20834;-81
2022/09/22 01:31:45;;;;;;;873.97;815.53;;;5.50;99.90;;;;;;4972036;28;20449;-81
2022/09/22 01:34:17;;;;;;;865.13;808.53;;;5.50;99.90;;;;;;4997108;28;20462;-81
2022/09/22 01:36:50;;;;;;;867.00;809.93;;;5.50;99.90;;;;;;4997261;28;20453;-82
2022/09/22 01:39:21;;;;;;;863.30;807.03;;;5.40;99.90;;;;;;4998022;28;20450;-81
2022/09/22 01:41:57;;;;;;;873.10;816.03;;;5.40;99.90;;;;;;4997182;28;20478;-81
2022/09/22 01:44:31;;;;;;;860.57;804.20;;;5.40;99.90;;;;;;4997603;28;20474;-81
2022/09/22 01:47:02;;;;;;;872.23;814.67;;;5.30;99.90;;;;;;4996982;28;20450;-81
2022/09/22 01:49:33;;;;;;;872.40;813.77;;;5.30;99.90;;;;;;4997815;28;20454;-81
2022/09/22 01:52:05;;;;;;;876.40;816.87;;;5.40;99.90;;;;;;4997966;28;20481;-82
2022/09/22 01:54:38;;;;;;;840.30;782.63;;;5.50;99.90;;;;;;4997324;28;21013;-81
2022/09/22 01:57:11;;;;;;;831.53;774.10;;;5.60;99.90;;;;;;4978284;28;20435;-82
2022/09/22 01:59:40;;;;;;;829.87;773.33;;;5.60;99.90;;;;;;4978806;28;20435;-83
2022/09/22 02:02:14;;;;;;;835.90;778.63;;;5.70;99.90;;;;;;4982767;28;20484;-80
2022/09/22 02:04:46;;;;;;;820.77;764.73;;;5.60;99.90;;;;;;4997119;28;20480;-81
2022/09/22 02:07:19;;;;;;;831.03;773.20;;;5.50;99.90;;;;;;4997080;28;20450;-81
2022/09/22 02:09:48;;;;;;;854.37;792.17;;;5.50;99.90;;;;;;4997698;28;20454;-83
2022/09/22 02:12:17;;;;;;;882.47;812.83;;;5.60;99.90;;;;;;4997312;28;20453;-81
2022/09/22 02:14:44;;;;;;;880.40;811.47;;;5.60;99.90;;;;;;5000683;28;20464;-81
2022/09/22 02:17:13;;;;;;;890.77;821.70;;;5.70;99.90;;;;;;5000820;28;20837;-81
2022/09/22 02:19:41;;;;;;;881.70;818.07;;;5.70;99.90;;;;;;5000537;28;20462;-81
2022/09/22 02:22:10;;;;;;;856.10;795.40;;;5.60;99.90;;;;;;5000726;28;20474;-81
2022/09/22 02:24:39;;;;;;;854.70;795.20;;;5.40;99.90;;;;;;5000495;28;20847;-81
2022/09/22 02:27:08;;;;;;;850.30;790.50;;;5.50;99.90;;;;;;5000705;28;20836;-82
2022/09/22 02:29:38;;;;;;;847.73;787.30;;;5.50;99.90;;;;;;5000422;28;20457;-81
2022/09/22 02:32:09;;;;;;;865.90;804.10;;;5.50;99.90;;;;;;5000340;28;20466;-82
2022/09/22 02:34:37;;;;;;;861.77;798.87;;;5.50;99.90;;;;;;5000429;28;20882;-82
2022/09/22 02:37:11;;;;;;;848.20;787.00;;;5.70;99.90;;;;;;5000688;28;20466;-82
2022/09/22 02:39:43;;;;;;;865.83;802.80;;;5.70;99.90;;;;;;5001018;28;20833;-82
2022/09/22 02:42:22;;;;;;;872.43;809.13;;;5.70;99.90;;;;;;5000932;28;20486;-81
2022/09/22 02:44:55;;;;;;;873.27;810.67;;;5.70;99.90;;;;;;5000496;28;20450;-81
2022/09/22 02:47:28;;;;;;;863.83;801.43;;;5.80;99.90;;;;;;5000397;28;20454;-82
2022/09/22 02:49:57;;;;;;;868.27;807.23;;;5.70;99.90;;;;;;5000858;28;20811;-81
2022/09/22 02:52:25;;;;;;;867.77;805.27;;;5.80;99.90;;;;;;5000706;28;20445;-82
2022/09/22 02:54:52;;;;;;;871.47;807.93;;;5.80;99.90;;;;;;4999533;28;20469;-82
2022/09/22 02:57:19;;;;;;;860.43;797.93;;;5.80;99.90;;;;;;5000294;28;20450;-82
2022/09/22 02:59:46;;;;;;;871.70;808.33;;;5.80;99.90;;;;;;4999888;28;20465;-81
2022/09/22 03:02:13;;;;;;;859.00;798.40;;;5.70;99.90;;;;;;5000654;28;20481;-81
2022/09/22 03:04:39;;;;;;;865.33;804.83;;;5.70;99.90;;;;;;5000495;28;20482;-81
2022/09/22 03:07:07;;;;;;;859.20;799.23;;;5.70;99.90;;;;;;5000318;28;20456;-82
2022/09/22 03:09:34;;;;;;;854.00;794.90;;;5.60;99.90;;;;;;4981314;28;20461;-82
2022/09/22 03:12:01;;;;;;;862.10;803.43;;;5.50;99.90;;;;;;4979644;28;20477;-83
2022/09/22 03:14:28;;;;;;;859.60;800.40;;;5.50;99.90;;;;;;4994062;28;20471;-82
2022/09/22 03:16:55;;;;;;;863.00;804.30;;;5.40;99.90;;;;;;5000393;28;20454;-81
2022/09/22 03:19:22;;;;;;;852.03;793.93;;;5.30;99.90;;;;;;5000015;28;20481;-82
2022/09/22 03:21:48;;;;;;;858.27;799.73;;;5.20;99.90;;;;;;4999299;28;20458;-81
2022/09/22 03:24:16;;;;;;;864.40;805.00;;;5.20;99.90;;;;;;4997571;28;20867;-81
2022/09/22 03:26:43;;;;;;;863.23;803.90;;;5.20;99.90;;;;;;4997274;28;20457;-81
2022/09/22 03:29:10;;;;;;;874.33;813.80;;;5.20;99.90;;;;;;5001357;28;20453;-82
2022/09/22 03:31:36;;;;;;;868.17;807.80;;;5.20;99.90;;;;;;5000187;28;20967;-82
2022/09/22 03:34:03;;;;;;;858.97;797.40;;;5.20;99.90;;;;;;4998948;28;20469;-82
2022/09/22 03:36:30;;;;;;;860.87;797.80;;;5.30;99.90;;;;;;5000407;28;20457;-82
2022/09/22 03:38:58;;;;;;;878.03;811.60;;;5.30;99.90;;;;;;4997556;28;20457;-83
2022/09/22 03:41:26;;;;;;;888.13;822.10;;;5.40;99.90;;;;;;4990703;28;20446;-82
2022/09/22 03:43:53;;;;;;;885.63;820.40;;;5.40;99.90;;;;;;5000317;28;20462;-83
2022/09/22 03:46:20;;;;;;;878.13;813.70;;;5.40;99.90;;;;;;5000816;28;20447;-84
2022/09/22 03:48:46;;;;;;;876.93;811.47;;;5.40;99.90;;;;;;5001236;28;20919;-82
2022/09/22 03:51:13;;;;;;;880.10;813.00;;;5.30;99.90;;;;;;5001520;28;20450;-84
2022/09/22 03:53:40;;;;;;;876.03;810.43;;;5.30;99.90;;;;;;4984807;28;20567;-81
2022/09/22 03:56:08;;;;;;;883.40;814.17;;;5.40;99.90;;;;;;4980846;28;20481;-82
2022/09/22 03:58:36;;;;;;;875.67;807.77;;;5.30;99.90;;;;;;4980505;28;20482;-82
2022/09/22 04:01:04;;;;;;;880.47;811.87;;;5.30;99.90;;;;;;4981126;28;20455;-83
2022/09/22 04:03:31;;;;;;;874.30;803.77;;;5.30;99.90;;;;;;4980358;28;21000;-84
2022/09/22 04:05:58;;;;;;;882.70;815.00;;;5.40;99.90;;;;;;5000262;28;20461;-82
2022/09/22 04:08:25;;;;;;;893.13;823.10;;;5.20;99.90;;;;;;4999478;28;20446;-83
2022/09/22 04:10:51;;;;;;;883.90;816.10;;;5.20;99.90;;;;;;5000678;28;20454;-82
2022/09/22 04:13:18;;;;;;;881.17;814.03;;;5.10;99.90;;;;;;5000392;28;20490;-83
2022/09/22 04:15:46;;;;;;;887.97;821.43;;;5.10;99.90;;;;;;4999513;28;20450;-83
2022/09/22 04:18:14;;;;;;;882.40;815.20;;;5.10;99.90;;;;;;5000592;28;20950;-83
2022/09/22 04:20:43;;;;;;;889.80;823.07;;;5.00;99.90;;;;;;4998593;28;20489;-82
2022/09/22 04:23:10;;;;;;;880.23;812.73;;;5.00;99.90;;;;;;4999897;28;20497;-83
2022/09/22 04:25:37;;;;;;;873.20;807.30;;;5.00;99.90;;;;;;4999095;28;20481;-82
2022/09/22 04:28:04;;;;;;;892.73;824.90;;;5.00;99.90;;;;;;4997961;28;20455;-83
2022/09/22 04:30:31;;;;;;;884.23;812.30;;;5.00;99.90;;;;;;4999978;28;20457;-83
2022/09/22 04:33:00;;;;;;;874.73;801.80;;;5.10;99.90;;;;;;4998587;28;20490;-81
2022/09/22 04:35:27;;;;;;;882.27;810.37;;;5.20;99.90;;;;;;4998988;28;20462;-82
2022/09/22 04:37:54;;;;;;;874.30;804.77;;;5.20;99.90;;;;;;5002068;28;20505;-84
2022/09/22 04:40:21;;;;;;;879.50;811.63;;;5.10;99.90;;;;;;4999218;28;20469;-81
2022/09/22 04:43:04;;;;;;;890.83;821.10;;;5.00;99.90;;;;;;4998762;28;20463;-82
2022/09/22 04:45:31;;;;;;;882.53;813.13;;;5.10;99.90;;;;;;4986104;28;20453;-81
2022/09/22 04:48:01;;;;;;;885.07;815.90;;;5.00;99.90;;;;;;4998001;28;20455;-81
2022/09/22 04:50:28;;;;;;;890.33;819.83;;;5.00;99.90;;;;;;4999488;28;20461;-81
2022/09/22 04:52:58;;;;;;;886.77;817.77;;;4.90;99.90;;;;;;4997790;28;20474;-81
2022/09/22 04:55:26;;;;;;;893.50;823.80;;;4.80;99.90;;;;;;4997594;28;20490;-80
2022/09/22 04:57:55;;;;;;;887.87;821.00;;;4.80;99.90;;;;;;4997435;28;20462;-81
2022/09/22 05:00:24;;;;;;;883.33;815.17;;;4.70;99.90;;;;;;4997304;28;20462;-82
2022/09/22 05:05:37;;;;;;;893.40;823.30;;;4.70;99.90;;;;;;4996640;28;20462;-81
2022/09/22 05:08:04;;;;;;;890.60;821.93;;;4.60;99.90;;;;;;4997838;28;20497;-81
2022/09/22 05:10:33;;;;;;;868.93;798.77;;;4.60;99.90;;;;;;4997714;28;20817;-81
2022/09/22 05:13:12;;;;;;;891.57;820.90;;;4.70;99.90;;;;;;4997872;28;20552;-81
2022/09/22 05:16:04;;;;;;;893.90;825.40;;;4.60;99.90;;;;;;4998507;28;20481;-82
2022/09/22 05:18:31;;;;;;;898.77;829.67;;;4.60;99.90;;;;;;4993152;28;20466;-82
2022/09/22 05:21:00;;;;;;;888.20;819.10;;;4.60;99.90;;;;;;4999965;28;20453;-83
2022/09/22 05:23:26;;;;;;;902.53;833.27;;;4.60;99.90;;;;;;4998655;28;20466;-82
2022/09/22 05:25:53;;;;;;;885.70;815.83;;;4.60;99.90;;;;;;4997916;28;20454;-82
2022/09/22 05:28:23;;;;;;;879.43;810.53;;;4.60;99.90;;;;;;4998727;28;20454;-82
2022/09/22 05:30:50;;;;;;;873.03;803.03;;;4.70;99.90;;;;;;4998354;28;20466;-81
2022/09/22 05:33:17;;;;;;;879.17;809.17;;;4.80;99.90;;;;;;4998833;28;21146;-81
2022/09/22 05:35:44;;;;;;;889.20;818.40;;;4.80;99.90;;;;;;4997414;28;20473;-80
2022/09/22 05:38:12;;;;;;;889.23;817.03;;;4.80;99.90;;;;;;4997349;28;20465;-81
2022/09/22 05:40:38;;;;;;;887.70;813.67;;;4.90;99.90;;;;;;4996347;28;20461;-82
2022/09/22 05:43:05;;;;;;;899.70;825.50;;;5.00;99.90;;;;;;4997227;28;20849;-80
2022/09/22 05:45:32;;;;;;;896.20;823.80;;;5.00;99.90;;;;;;4997061;28;20461;-81
2022/09/22 05:47:59;;;;;;;901.90;830.00;;;5.00;99.90;;;;;;4999167;28;20462;-81
2022/09/22 05:50:25;;;;;;;904.07;832.30;;;5.00;99.90;;;;;;5004286;28;20461;-81
2022/09/22 05:53:02;;;;;;;907.03;832.30;;;4.90;99.90;;;;;;4999870;28;20484;-82
2022/09/22 05:55:30;;;;;;;898.97;819.77;;;5.00;99.90;;;;;;4997621;28;20636;-82
2022/09/22 05:57:57;;;;;;;890.93;815.37;;;5.10;99.90;;;;;;5001622;28;20446;-82
2022/09/22 06:00:24;;;;;;;901.00;825.00;;;5.10;99.90;;;;;;5001023;28;20449;-81
2022/09/22 06:02:51;;;;;;;896.53;820.43;;;5.10;99.90;;;;;;5000668;28;20473;-82
2022/09/22 06:05:20;;;;;;;890.70;814.50;;;5.20;99.90;;;;;;4999774;28;20450;-81
2022/09/22 06:07:59;;;;;;;897.40;821.60;;;5.40;99.90;;;;;;5001177;28;20454;-82
2022/09/22 06:10:50;;;;;;;905.27;828.63;;;5.40;99.90;;;;;;5001105;28;20470;-81
2022/09/22 06:16:01;;;;;;;900.37;823.90;;;5.70;99.90;;;;;;4983138;28;20500;-81
2022/09/22 06:18:30;;;;;;;901.70;824.40;;;5.80;99.90;;;;;;4999405;28;20500;-81
2022/09/22 06:20:57;;;;;;;901.30;824.30;;;5.90;99.90;;;;;;4999026;28;20458;-81
2022/09/22 06:23:44;;;;;;;908.33;830.03;;;6.00;99.90;;;;;;4998756;28;20477;-82
2022/09/22 06:26:12;;;;;;;911.63;833.73;;;6.20;99.90;;;;;;4997045;28;20454;-81
2022/09/22 06:28:39;;;;;;;913.57;835.37;;;6.30;99.90;;;;;;5000296;28;20453;-81
2022/09/22 06:31:06;;;;;;;915.33;838.10;;;6.50;99.90;;;;;;5002276;28;20461;-81
2022/09/22 06:33:32;;;;;;;914.87;835.27;;;6.60;99.90;;;;;;5002457;28;20505;-82
2022/09/22 06:36:00;;;;;;;903.40;824.40;;;6.70;99.90;;;;;;5002314;28;20460;-82
2022/09/22 06:38:30;;;;;;;910.27;830.67;;;6.80;99.90;;;;;;5002039;28;20454;-81
2022/09/22 06:41:04;;;;;;;908.33;829.93;;;6.90;99.90;;;;;;5001465;28;20476;-81
2022/09/22 06:43:36;;;;;;;918.23;838.27;;;6.90;99.90;;;;;;5002091;28;20477;-82
2022/09/22 06:46:03;;;;;;;908.70;829.13;;;7.10;99.90;;;;;;5001971;28;20827;-81
2022/09/22 06:48:30;;;;;;;916.50;834.90;;;7.20;99.90;;;;;;5002133;28;20462;-82
2022/09/22 06:50:57;;;;;;;922.63;839.87;;;7.30;99.90;;;;;;5001849;28;20504;-81
2022/09/22 06:53:24;;;;;;;928.70;846.30;;;7.40;99.90;;;;;;5001723;28;20481;-81
2022/09/22 06:55:51;;;;;;;920.50;838.43;;;7.50;99.90;;;;;;5001548;28;20458;-81
2022/09/22 06:58:17;;;;;;;909.47;827.07;;;7.60;99.90;;;;;;5001595;28;20453;-81
2022/09/22 07:00:46;;;;;;;925.97;842.83;;;7.70;99.90;;;;;;5000352;28;20460;-80
2022/09/22 07:03:19;;;;;;;917.57;835.57;;;7.80;99.90;;;;;;5001901;28;20481;-80
2022/09/22 07:05:55;;;;;;;914.30;832.23;;;7.90;99.90;;;;;;5001415;28;20450;-81
2022/09/22 07:08:22;;;;;;;922.47;839.87;;;8.00;99.90;;;;;;5001514;28;20533;-80
2022/09/22 07:10:54;;;;;;;906.73;826.30;;;8.10;99.90;;;;;;5000888;28;20834;-79
2022/09/22 07:13:21;;;;;;;912.97;832.30;;;8.20;99.90;;;;;;4999677;28;20474;-81
2022/09/22 07:15:49;;;;;;;912.77;833.43;;;8.40;99.90;;;;;;5000666;28;20449;-81
2022/09/22 07:18:16;;;;;;;909.20;831.03;;;8.40;99.90;;;;;;5000829;28;20463;-82
2022/09/22 07:20:44;;;;;;;896.27;818.50;;;8.40;99.90;;;;;;5000315;28;20454;-82
2022/09/22 07:23:19;;;;;;;889.53;815.23;;;8.50;99.90;;;;;;5001162;28;20525;-81
2022/09/22 07:25:55;;;;;;;886.70;813.40;;;8.60;99.90;;;;;;5000034;28;20450;-81
2022/09/22 07:28:24;;;;;;;876.87;803.20;;;8.80;99.90;;;;;;5000711;28;20461;-80
2022/09/22 07:30:52;;;;;;;880.80;809.90;;;8.80;99.90;;;;;;5000221;28;20484;-82
2022/09/22 07:33:19;;;;;;;862.17;794.77;;;8.90;99.90;;;;;;5000872;28;20477;-81
2022/09/22 07:35:46;;;;;;;857.47;791.50;;;9.00;99.90;;;;;;4999602;28;20454;-81
2022/09/22 07:38:13;;;;;;;857.67;792.20;;;9.00;99.90;;;;;;5000429;28;20496;-81
2022/09/22 07:40:40;;;;;;;844.97;782.47;;;9.20;99.90;;;;;;5000053;28;20943;-81
2022/09/22 07:43:06;;;;;;;845.03;783.93;;;9.30;99.90;;;;;;5000210;28;20485;-81
2022/09/22 07:45:33;;;;;;;842.30;781.07;;;9.30;99.90;;;;;;5000764;28;20453;-81
2022/09/22 07:50:54;;;;;;;802.97;748.47;;;9.50;99.90;;;;;;5000704;28;20529;-82
2022/09/22 07:53:21;;;;;;;785.73;734.73;;;9.60;99.90;;;;;;5000150;28;20497;-81
2022/09/22 07:55:48;;;;;;;762.90;714.60;;;9.80;99.90;;;;;;5000173;28;20450;-81
2022/09/22 07:58:15;;;;;;;757.27;710.17;;;9.80;99.90;;;;;;5000607;28;20493;-81
2022/09/22 08:00:41;;;;;;;718.90;677.37;;;9.90;99.90;;;;;;5000226;28;20450;-81
2022/09/22 08:03:09;;;;;;;645.57;612.97;;;10.00;99.90;;;;;;4999843;28;20474;-81
2022/09/22 08:05:37;;;;;;;638.37;605.93;;;10.20;99.90;;;;;;4999586;28;20947;-81
2022/09/22 08:08:04;;;;;;;574.50;546.40;;;10.30;99.90;;;;;;5000178;28;20977;-81
2022/09/22 08:10:34;;;;;;;478.67;457.53;;;10.40;99.90;;;;;;4999979;28;20449;-81
2022/09/22 08:13:03;;;;;;;417.73;399.90;;;10.60;99.90;;;;;;4999642;28;20474;-81
2022/09/22 08:15:30;;;;;;;238.90;229.73;;;10.80;99.90;;;;;;5000176;28;20465;-81
2022/09/22 08:17:57;;;;;;;115.43;110.13;;;11.00;99.90;;;;;;4999998;28;20450;-81
2022/09/22 08:20:27;;;;;;;13.30;12.03;;;11.30;99.90;;;;;;5000277;28;20473;-82
2022/09/22 08:22:54;;;;;;;9.77;7.43;;;11.60;99.90;;;;;;4999699;28;20509;-82
2022/09/22 08:25:21;;;;;;;10.30;5.90;;;11.90;99.90;;;;;;5000056;28;20917;-81
2022/09/22 08:27:48;;;;;;;12.00;5.67;;;12.30;99.90;;;;;;4999829;28;20458;-82
2022/09/22 08:30:16;;;;;;;10.63;5.40;;;12.50;99.90;;;;;;4999474;28;20485;-82
2022/09/22 08:32:42;;;;;;;20.00;5.57;;;12.80;99.90;;;;;;4999721;28;20579;-82
2022/09/22 08:35:09;;;;;;;11.33;5.83;;;13.10;99.90;;;;;;4999520;28;20504;-82
2022/09/22 08:37:40;;;;;;;8.40;5.20;;;13.20;99.90;;;;;;4999771;28;20460;-81
2022/09/22 08:40:11;;;;;;;9.87;5.10;;;13.50;99.90;;;;;;4999126;28;20451;-82
2022/09/22 08:42:40;;;;;;;9.23;5.00;;;13.70;99.90;;;;;;4999213;28;20482;-81
2022/09/22 08:45:20;;;;;;;11.60;5.20;;;14.00;99.90;;;;;;4998604;28;20480;-81
2022/09/22 08:53:35;;;;;;;9.57;4.43;;;14.70;96.80;;;;;;4998571;28;20972;-82
2022/09/22 08:56:28;;;;;;;9.10;3.80;;;15.20;96.50;;;;;;4998332;28;20459;-82
2022/09/22 08:59:03;;;;;;;6.67;3.87;;;15.50;95.50;;;;;;4998692;28;21038;-82
2022/09/22 09:01:43;;;;;;;10.23;4.20;;;16.00;95.20;;;;;;4998951;28;20456;-82
2022/09/22 09:04:50;;;;;;;11.20;3.57;;;16.30;92.20;;;;;;4998387;28;20495;-82
2022/09/22 09:07:27;;;;;;;9.00;4.10;;;16.60;87.30;;;;;;4999055;28;20462;-83
2022/09/22 09:10:05;;;;;;;6.90;3.70;;;16.80;83.20;;;;;;4998468;28;20470;-82
2022/09/22 09:12:57;;;;;;;12.23;4.10;;;17.20;81.40;;;;;;4998665;28;20454;-83
2022/09/22 09:15:42;;;;;;;6.83;3.50;;;17.50;78.80;;;;;;4998259;28;20446;-83
2022/09/22 09:18:14;;;;;;;6.90;3.70;;;17.90;75.30;;;;;;4998985;28;20880;-83
2022/09/22 09:20:46;;;;;;;8.13;3.80;;;18.40;76.40;;;;;;4998804;28;20464;-83
2022/09/22 09:23:17;;;;;;;11.87;4.10;;;18.90;69.10;;;;;;4997856;28;20496;-83
2022/09/22 09:25:49;;;;;;;8.93;4.50;;;19.00;67.10;;;;;;4997918;28;20492;-83
2022/09/22 09:28:22;;;;;;;6.83;3.40;;;19.10;64.00;;;;;;4998814;28;20465;-83
2022/09/22 09:30:51;;;;;;;7.03;3.50;;;19.40;58.70;;;;;;4998862;28;20522;-83
2022/09/22 09:33:30;;;;;;;7.10;3.00;;;19.40;61.30;;;;;;4998297;28;20480;-83
2022/09/22 09:36:00;;;;;;;6.93;3.10;;;19.70;52.90;;;;;;4998080;28;20551;-83
2022/09/22 09:38:30;;;;;;;6.90;2.70;;;20.00;53.00;;;;;;4998902;28;20464;-83
2022/09/22 09:41:11;;;;;;;10.73;3.30;;;20.20;46.90;;;;;;4998291;28;20523;-83
2022/09/22 09:43:44;;;;;;;8.60;3.73;;;20.40;46.40;;;;;;4998940;28;20482;-83
2022/09/22 09:46:19;;;;;;;7.43;3.87;;;20.20;44.60;;;;;;4997978;28;20459;-83
2022/09/22 09:49:04;;;;;;;9.37;3.50;;;20.60;44.30;;;;;;4998659;28;20453;-83
2022/09/22 09:51:34;;;;;;;12.93;3.60;;;21.10;40.80;;;;;;4998359;28;20966;-83
2022/09/22 09:54:05;;;;;;;11.70;3.67;;;21.50;36.70;;;;;;4998175;28;20491;-84
2022/09/22 09:56:35;;;;;;;8.70;3.07;;;21.50;33.70;;;;;;4998380;28;20828;-83
2022/09/22 10:01:54;;;;;;;10.13;2.90;;;21.70;28.20;;;;;;4998904;28;20465;-84
2022/09/22 10:04:30;;;;;;;8.20;2.73;;;22.10;28.60;;;;;;4997853;28;20987;-84
2022/09/22 10:07:11;;;;;;;7.50;3.00;;;22.40;24.70;;;;;;4998886;28;20481;-84
2022/09/22 10:09:40;;;;;;;11.07;3.67;;;21.70;26.30;;;;;;4998873;28;20462;-83
2022/09/22 10:12:22;;;;;;;10.00;4.00;;;22.40;27.60;;;;;;4998286;28;20442;-85
2022/09/22 10:14:53;;;;;;;6.50;3.13;;;22.90;25.20;;;;;;4998741;28;20473;-84
2022/09/22 10:17:27;;;;;;;7.03;3.23;;;23.00;22.60;;;;;;4977460;28;20534;-84
2022/09/22 10:20:15;;;;;;;6.57;3.43;;;23.40;19.60;;;;;;4979297;28;20450;-84
2022/09/22 10:22:42;;;;;;;8.80;3.10;;;23.80;20.50;;;;;;4979075;28;20477;-84
2022/09/22 10:25:20;;;;;;;8.40;2.60;;;23.00;16.70;;;;;;4979420;28;20443;-84
2022/09/22 10:28:00;;;;;;;6.43;2.93;;;23.30;14.80;;;;;;4979649;28;20462;-84
2022/09/22 10:30:30;;;;;;;8.87;2.67;;;23.40;14.60;;;;;;4979550;28;20486;-84
2022/09/22 10:33:06;;;;;;;6.57;2.77;;;23.40;14.70;;;;;;4978854;28;20517;-84
2022/09/22 10:35:35;;;;;;;8.07;3.43;;;23.00;10.70;;;;;;4980895;28;20494;-85
2022/09/22 10:38:17;;;;;;;5.50;2.20;;;23.80;13.10;;;;;;4979182;28;20481;-84
2022/09/22 10:40:55;;;;;;;9.30;5.20;;;24.00;7.40;;;;;;4978635;28;20478;-84
2022/09/22 10:43:48;;;;;;;8.43;3.50;;;23.80;8.90;;;;;;4979296;28;20475;-85
2022/09/22 10:46:42;;;;;;;7.47;3.50;;;23.80;9.30;;;;;;4978012;28;20837;-85
2022/09/22 10:49:22;;;;;;;6.10;3.00;;;24.00;7.40;;;;;;4979525;28;20442;-84
2022/09/22 10:52:04;;;;;;;7.80;3.57;;;23.80;5.40;;;;;;4981473;28;20513;-85
2022/09/22 10:54:54;;;;;;;8.17;3.80;;;23.40;4.50;;;;;;4979950;28;20506;-85
2022/09/22 10:57:37;;;;;;;6.50;3.70;;;23.80;7.30;;;;;;4981480;28;20455;-85
2022/09/22 11:00:13;;;;;;;8.87;3.23;;;24.30;2.90;;;;;;4980020;28;20463;-85
2022/09/22 11:03:31;;;;;;;8.20;3.40;;;24.60;1.90;;;;;;4979007;28;21010;-85
2022/09/22 11:14:55;;;;;;;5.53;2.53;;;25.40;1.00;;;;;;4977961;28;20479;-85
2022/09/22 11:17:39;;;;;;;5.17;2.27;;;24.80;1.00;;;;;;4975816;28;20454;-84
2022/09/22 11:20:36;;;;;;;6.20;2.40;;;24.80;1.00;;;;;;4978440;28;20459;-85
2022/09/22 11:23:31;;;;;;;5.00;2.40;;;24.90;1.00;;;;;;4977036;28;20573;-85
2022/09/22 11:26:39;;;;;;;5.17;2.03;;;24.80;1.00;;;;;;4979351;28;20545;-85
2022/09/22 11:29:48;;;;;;;8.13;3.97;;;25.00;1.00;;;;;;4972751;28;20974;-85
2022/09/22 11:33:14;;;;;;;5.60;2.50;;;25.00;1.00;;;;;;4977733;28;20501;-85
2022/09/22 11:36:13;;;;;;;8.97;2.83;;;25.30;1.00;;;;;;4979182;28;20475;-82
2022/09/22 11:39:05;;;;;;;5.83;2.37;;;26.10;1.00;;;;;;4966982;28;20478;-85
2022/09/22 11:41:48;;;;;;;9.70;4.80;;;25.80;1.00;;;;;;4976948;28;20462;-83
2022/09/22 11:44:55;;;;;;;7.03;3.50;;;26.20;1.00;;;;;;4977368;28;20987;-84
2022/09/22 11:48:07;;;;;;;6.70;3.40;;;26.00;1.00;;;;;;4976665;28;20560;-86
2022/09/22 11:51:15;;;;;;;5.60;2.90;;;25.40;1.00;;;;;;4973074;28;20470;-86
2022/09/22 11:54:05;;;;;;;5.60;2.30;;;25.30;1.00;;;;;;4976643;28;20506;-84
2022/09/22 11:56:39;;;;;;;6.27;2.77;;;25.30;1.00;;;;;;4984550;28;20493;-85
2022/09/22 11:59:15;;;;;;;5.83;2.73;;;25.10;1.00;;;;;;4985685;28;20454;-85
2022/09/22 12:01:42;;;;;;;7.47;3.30;;;25.20;1.00;;;;;;4985432;28;20453;-85
2022/09/22 12:04:19;;;;;;;6.93;2.90;;;25.60;1.00;;;;;;4985093;28;20478;-85
2022/09/22 12:06:51;;;;;;;6.27;2.67;;;25.40;1.00;;;;;;4984206;28;20458;-84
2022/09/22 12:09:32;;;;;;;5.97;2.40;;;25.80;1.00;;;;;;4985590;28;20893;-84
2022/09/22 12:12:01;;;;;;;7.23;2.80;;;24.80;1.00;;;;;;4985044;28;20458;-85
2022/09/22 12:14:29;;;;;;;6.20;2.70;;;25.00;1.00;;;;;;4985517;28;20446;-85
2022/09/22 12:17:01;;;;;;;6.03;2.20;;;25.80;1.00;;;;;;4984586;28;20465;-85
2022/09/22 12:19:38;;;;;;;5.73;2.90;;;26.10;1.00;;;;;;4983280;28;20489;-85
2022/09/22 12:22:13;;;;;;;6.17;2.63;;;26.50;1.00;;;;;;4982432;28;20825;-85
2022/09/22 12:24:44;;;;;;;8.53;3.07;;;26.50;1.00;;;;;;4982826;28;20471;-84
2022/09/22 12:27:15;;;;;;;5.20;2.07;;;26.00;1.00;;;;;;4983491;28;20458;-84
2022/09/22 12:29:42;;;;;;;6.87;2.03;;;25.90;1.00;;;;;;4983038;28;20462;-84
2022/09/22 12:32:21;;;;;;;5.37;2.00;;;25.30;1.00;;;;;;4983018;28;20465;-85
2022/09/22 12:34:48;;;;;;;7.53;2.83;;;26.40;1.00;;;;;;4982362;28;20478;-82
2022/09/22 12:37:26;;;;;;;7.57;2.03;;;26.70;1.00;;;;;;4982347;28;20463;-85
2022/09/22 12:40:03;;;;;;;4.80;2.10;;;26.70;1.00;;;;;;4981685;28;20458;-85
2022/09/22 12:42:43;;;;;;;7.43;3.40;;;26.30;1.00;;;;;;4975017;28;20497;-85
2022/09/22 12:45:35;;;;;;;5.13;2.30;;;26.40;1.00;;;;;;4975572;28;20462;-85
2022/09/22 12:48:16;;;;;;;5.30;1.87;;;26.50;1.00;;;;;;4975450;28;20454;-85
2022/09/22 12:50:59;;;;;;;6.13;1.90;;;26.60;1.00;;;;;;4975392;28;20486;-85
2022/09/22 12:53:33;;;;;;;6.70;2.03;;;26.60;1.00;;;;;;4976634;28;20982;-84
2022/09/22 12:59:54;;;;;;;5.80;1.90;;;27.30;1.00;;;;;;4974906;28;20481;-85
2022/09/22 13:05:30;;;;;;;7.70;1.93;;;26.10;1.00;;;;;;5031511;23;20483;-85
2022/09/22 13:08:48;;;;;;;7.03;1.60;;;26.00;1.00;;;;;;4998336;28;20209;-85
2022/09/22 13:11:49;;;;;;;5.03;1.80;;;26.90;1.00;;;;;;5032746;28;20872;-85
2022/09/22 13:14:49;;;;;;;6.20;1.50;;;27.00;1.00;;;;;;5016069;28;20469;-85
2022/09/22 13:18:09;;;;;;;5.40;2.10;;;26.00;1.00;;;;;;5012943;28;20452;-85
2022/09/22 13:23:29;;;;;;;4.60;1.80;;;26.60;1.00;;;;;;4991986;28;20476;-82
2022/09/22 13:26:15;;;;;;;17.20;3.20;;;25.80;1.00;;;;;;5021324;28;20445;-85
2022/09/22 13:29:05;;;;;;;8.35;1.50;;;26.00;1.00;;;;;;5013818;28;20458;-86
2022/09/22 13:31:56;;;;;;;5.00;1.50;;;26.10;1.00;;;;;;5016291;28;20209;-85
2022/09/22 13:35:01;;;;;;;6.77;1.60;;;26.50;1.00;;;;;;5015427;28;20851;-84